createdAt,value
2023-02-06T00:00:16.715Z,101637.27
2023-02-06T00:03:03.106Z,101635.66
2023-02-06T00:05:29.271Z,101638.19
2023-02-06T00:07:55.330Z,101639.12
2023-02-06T00:10:23.857Z,101643.11
2023-02-06T00:12:49.887Z,101643.91
2023-02-06T00:15:18.989Z,101642.69
2023-02-06T00:17:44.895Z,101636.34
2023-02-06T00:20:11.756Z,101638.78
2023-02-06T00:22:37.745Z,101641.05
2023-02-06T00:25:04.035Z,101644.55
2023-02-06T00:27:29.938Z,101646.77
2023-02-06T00:29:56.899Z,101649.45
2023-02-06T00:32:22.857Z,101650.35
2023-02-06T00:34:48.882Z,101641.34
2023-02-06T00:37:16.746Z,101641.52
2023-02-06T00:39:42.958Z,101642.36
2023-02-06T00:42:08.938Z,101639.45
2023-02-06T00:44:34.900Z,101632.95
2023-02-06T00:47:00.949Z,101627.66
2023-02-06T00:49:27.213Z,101631.94
2023-02-06T00:51:53.156Z,101631.63
2023-02-06T00:54:20.242Z,101625.18
2023-02-06T00:56:46.550Z,101620.56
2023-02-06T00:59:13.581Z,101627.67
2023-02-06T01:01:39.511Z,101626.98
2023-02-06T01:04:05.474Z,101621.30
2023-02-06T01:06:31.503Z,101620.83
2023-02-06T01:08:57.465Z,101617.29
2023-02-06T01:11:24.380Z,101616.73
2023-02-06T01:13:51.674Z,101609.69
2023-02-06T01:16:19.382Z,101600.66
2023-02-06T01:18:45.359Z,101601.44
2023-02-06T01:21:12.937Z,101602.13
2023-02-06T01:23:38.979Z,101595.27
2023-02-06T01:26:10.824Z,101583.54
2023-02-06T01:28:40.355Z,101581.64
2023-02-06T01:31:14.387Z,101588.05
2023-02-06T01:33:40.435Z,101594.52
2023-02-06T01:36:06.818Z,101595.42
2023-02-06T01:38:32.839Z,101590.10
2023-02-06T01:40:59.541Z,101591.55
2023-02-06T01:43:28.076Z,101590.59
2023-02-06T01:45:54.038Z,101582.02
2023-02-06T01:48:21.618Z,101578.50
2023-02-06T01:50:50.499Z,101576.76
2023-02-06T01:53:16.473Z,101581.27
2023-02-06T01:55:43.907Z,101582.90
2023-02-06T01:58:10.675Z,101583.54
2023-02-06T02:00:36.792Z,101577.83
2023-02-06T02:03:02.840Z,101574.34
2023-02-06T02:05:28.788Z,101577.17
2023-02-06T02:08:00.471Z,101583.73
2023-02-06T02:10:30.073Z,101588.37
2023-02-06T02:12:56.563Z,101591.94
2023-02-06T02:15:24.361Z,101594.94
2023-02-06T02:18:02.605Z,101599.52
2023-02-06T02:20:56.760Z,101599.31
2023-02-06T02:23:31.145Z,101598.17
2023-02-06T02:26:07.368Z,101599.19
2023-02-06T02:28:33.380Z,101605.15
2023-02-06T02:31:07.676Z,101610.44
2023-02-06T02:33:39.874Z,101609.15
2023-02-06T02:36:45.107Z,101605.11
2023-02-06T02:39:31.902Z,101607.84
2023-02-06T02:42:12.790Z,101613.66
2023-02-06T02:45:07.284Z,101619.10
2023-02-06T02:47:38.396Z,101624.77
2023-02-06T02:50:04.825Z,101623.33
2023-02-06T02:52:30.751Z,101620.02
2023-02-06T02:54:56.650Z,101616.25
2023-02-06T02:57:29.463Z,101613.10
2023-02-06T02:59:56.751Z,101613.63
2023-02-06T03:02:28.744Z,101611.50
2023-02-06T03:05:01.719Z,101605.30
2023-02-06T03:07:53.034Z,101605.52
2023-02-06T03:10:44.522Z,101607.05
2023-02-06T03:13:18.430Z,101604.61
2023-02-06T03:16:07.556Z,101600.23
2023-02-06T03:18:40.592Z,101593.27
2023-02-06T03:21:10.223Z,101596.75
2023-02-06T03:23:38.760Z,101598.73
2023-02-06T03:26:06.260Z,101601.54
2023-02-06T03:28:33.926Z,101595.37
2023-02-06T03:31:01.235Z,101591.48
2023-02-06T03:33:30.900Z,101593.20
2023-02-06T03:35:57.422Z,101586.58
2023-02-06T03:38:24.140Z,101581.94
2023-02-06T03:40:50.238Z,101578.02
2023-02-06T03:43:18.134Z,101578.35
2023-02-06T03:45:46.862Z,101576.34
2023-02-06T03:48:18.708Z,101573.05
2023-02-06T03:50:45.404Z,101572.65
2023-02-06T03:53:11.349Z,101571.24
2023-02-06T03:55:38.110Z,101570.77
2023-02-06T03:58:06.350Z,101569.54
2023-02-06T04:00:32.411Z,101562.16
2023-02-06T04:02:58.724Z,101559.93
2023-02-06T04:05:24.805Z,101559.24
2023-02-06T04:07:52.009Z,101560.95
2023-02-06T04:10:18.016Z,101560.83
2023-02-06T04:12:43.951Z,101561.70
2023-02-06T04:15:10.099Z,101565.10
2023-02-06T04:17:53.570Z,101564.58
2023-02-06T04:20:22.541Z,101562.77
2023-02-06T04:22:48.566Z,101563.07
2023-02-06T04:25:14.447Z,101567.73
2023-02-06T04:27:40.337Z,101569.58
2023-02-06T04:30:07.291Z,101565.25
2023-02-06T04:32:33.253Z,101562.35
2023-02-06T04:34:59.172Z,101565.44
2023-02-06T04:37:25.061Z,101565.98
2023-02-06T04:39:50.981Z,101565.84
2023-02-06T04:42:16.901Z,101568.27
2023-02-06T04:44:42.835Z,101570.45
2023-02-06T04:47:08.734Z,101572.05
2023-02-06T04:49:34.667Z,101571.27
2023-02-06T04:52:00.591Z,101569.25
2023-02-06T04:54:26.561Z,101570.42
2023-02-06T04:56:52.493Z,101569.42
2023-02-06T04:59:18.382Z,101572.23
2023-02-06T05:01:44.338Z,101573.48
2023-02-06T05:04:10.272Z,101571.17
2023-02-06T05:06:36.216Z,101575.02
2023-02-06T05:09:02.972Z,101576.86
2023-02-06T05:11:28.858Z,101572.31
2023-02-06T05:13:54.769Z,101570.36
2023-02-06T05:16:20.695Z,101570.73
2023-02-06T05:18:46.790Z,101573.41
2023-02-06T05:21:13.374Z,101570.77
2023-02-06T05:23:39.724Z,101573.16
2023-02-06T05:26:05.659Z,101574.13
2023-02-06T05:28:34.500Z,101570.50
2023-02-06T05:31:01.281Z,101580.56
2023-02-06T05:33:27.356Z,101580.23
2023-02-06T05:35:53.285Z,101578.80
2023-02-06T05:38:19.194Z,101577.84
2023-02-06T05:40:45.227Z,101579.45
2023-02-06T05:43:11.291Z,101577.91
2023-02-06T05:45:37.592Z,101580.08
2023-02-06T05:48:04.085Z,101583.23
2023-02-06T05:50:30.001Z,101586.02
2023-02-06T05:52:58.100Z,101588.65
2023-02-06T05:55:24.409Z,101597.52
2023-02-06T05:57:50.354Z,101594.00
2023-02-06T06:00:16.541Z,101589.71
2023-02-06T06:02:42.501Z,101592.10
2023-02-06T06:05:08.496Z,101591.51
2023-02-06T06:07:34.453Z,101590.55
2023-02-06T06:10:00.372Z,101590.48
2023-02-06T06:12:26.261Z,101592.63
2023-02-06T06:14:52.169Z,101596.84
2023-02-06T06:17:18.156Z,101600.21
2023-02-06T06:19:44.059Z,101598.18
2023-02-06T06:22:10.866Z,101595.92
2023-02-06T06:24:37.132Z,101596.70
2023-02-06T06:27:03.125Z,101598.08
2023-02-06T06:29:29.102Z,101596.76
2023-02-06T06:31:55.105Z,101597.25
2023-02-06T06:34:21.185Z,101603.99
2023-02-06T06:36:47.095Z,101602.60
2023-02-06T06:39:12.999Z,101598.69
2023-02-06T06:41:38.926Z,101599.48
2023-02-06T06:44:04.814Z,101600.48
2023-02-06T06:46:30.709Z,101600.85
2023-02-06T06:48:56.624Z,101603.85
2023-02-06T06:51:23.054Z,101609.05
2023-02-06T06:53:48.951Z,101607.15
2023-02-06T06:56:14.949Z,101608.07
2023-02-06T06:58:41.304Z,101605.48
2023-02-06T07:01:08.065Z,101603.84
2023-02-06T07:03:34.236Z,101603.83
2023-02-06T07:06:00.217Z,101603.39
2023-02-06T07:08:29.319Z,101600.27
2023-02-06T07:10:56.963Z,101603.11
2023-02-06T07:13:23.127Z,101600.69
2023-02-06T07:15:49.066Z,101606.55
2023-02-06T07:18:14.985Z,101615.88
2023-02-06T07:20:40.901Z,101620.10
2023-02-06T07:23:06.831Z,101618.91
2023-02-06T07:25:32.877Z,101617.67
2023-02-06T07:27:58.865Z,101625.92
2023-02-06T07:30:24.801Z,101625.09
2023-02-06T07:32:50.852Z,101627.19
2023-02-06T07:35:17.063Z,101627.08
2023-02-06T07:37:42.960Z,101624.67
2023-02-06T07:40:10.041Z,101623.43
2023-02-06T07:42:35.983Z,101626.38
2023-02-06T07:45:09.003Z,101621.08
2023-02-06T07:47:34.930Z,101623.67
2023-02-06T07:50:00.850Z,101625.67
2023-02-06T07:52:26.761Z,101624.08
2023-02-06T07:54:54.342Z,101625.45
2023-02-06T07:57:20.770Z,101622.39
2023-02-06T07:59:46.711Z,101626.45
2023-02-06T08:02:12.707Z,101625.31
2023-02-06T08:04:38.854Z,101624.69
2023-02-06T08:07:05.224Z,101628.85
2023-02-06T08:09:31.461Z,101626.40
2023-02-06T08:11:57.400Z,101621.66
2023-02-06T08:14:24.002Z,101626.02
2023-02-06T08:16:50.248Z,101627.08
2023-02-06T08:19:16.140Z,101627.73
2023-02-06T08:21:42.064Z,101627.14
2023-02-06T08:24:13.044Z,101624.77
2023-02-06T08:26:39.036Z,101619.91
2023-02-06T08:29:05.879Z,101621.86
2023-02-06T08:31:33.911Z,101622.09
2023-02-06T08:33:59.955Z,101620.79
2023-02-06T08:36:26.183Z,101620.61
2023-02-06T08:38:52.467Z,101617.78
2023-02-06T08:41:21.379Z,101620.70
2023-02-06T08:43:48.204Z,101613.65
2023-02-06T08:46:14.883Z,101612.44
2023-02-06T08:48:40.829Z,101615.49
2023-02-06T08:51:07.627Z,101618.48
2023-02-06T08:53:33.625Z,101620.25
2023-02-06T08:56:00.745Z,101621.55
2023-02-06T08:58:26.649Z,101619.89
2023-02-06T09:00:53.050Z,101625.77
2023-02-06T09:03:20.396Z,101625.25
2023-02-06T09:05:46.620Z,101622.06
2023-02-06T09:08:12.710Z,101628.41
2023-02-06T09:10:38.598Z,101630.06
2023-02-06T09:13:04.559Z,101634.73
2023-02-06T09:15:30.518Z,101635.95
2023-02-06T09:17:56.526Z,101627.77
2023-02-06T09:20:25.948Z,101625.08
2023-02-06T09:22:52.629Z,101628.91
2023-02-06T09:25:18.582Z,101630.13
2023-02-06T09:27:46.212Z,101633.00
2023-02-06T09:30:15.085Z,101635.64
2023-02-06T09:32:42.553Z,101632.11
2023-02-06T09:35:08.455Z,101627.27
2023-02-06T09:37:34.766Z,101628.42
2023-02-06T09:40:00.672Z,101625.00
2023-02-06T09:42:29.453Z,101624.58
2023-02-06T09:45:11.219Z,101625.92
2023-02-06T09:47:39.331Z,101629.26
2023-02-06T09:50:07.280Z,101633.92
2023-02-06T09:53:10.673Z,101634.67
2023-02-06T09:55:40.686Z,101633.95
2023-02-06T09:58:38.814Z,101627.81
2023-02-06T10:01:20.959Z,101622.63
2023-02-06T10:04:10.072Z,101623.27
2023-02-06T10:06:41.525Z,101619.95
2023-02-06T10:09:14.364Z,101620.48
2023-02-06T10:11:48.674Z,101616.39
2023-02-06T10:14:24.070Z,101619.08
2023-02-06T10:17:04.221Z,101619.21
2023-02-06T10:19:38.527Z,101620.04
2023-02-06T10:22:08.665Z,101621.39
2023-02-06T10:24:40.469Z,101619.17
2023-02-06T10:27:10.498Z,101616.79
2023-02-06T10:29:36.452Z,101617.95
2023-02-06T10:32:25.791Z,101618.36
2023-02-06T10:35:02.971Z,101615.13
2023-02-06T10:37:52.685Z,101614.03
2023-02-06T10:40:27.741Z,101614.05
2023-02-06T10:43:22.234Z,101613.73
2023-02-06T10:46:19.250Z,101599.59
2023-02-06T10:49:16.740Z,101599.98
2023-02-06T10:51:44.781Z,101596.50
2023-02-06T10:54:16.851Z,101595.24
2023-02-06T10:56:44.329Z,101591.52
2023-02-06T10:59:39.921Z,101593.03
2023-02-06T11:02:08.720Z,101587.39
2023-02-06T11:04:39.706Z,101584.43
2023-02-06T11:07:15.688Z,101585.48
2023-02-06T11:09:41.636Z,101586.09
2023-02-06T11:12:18.179Z,101595.70
2023-02-06T11:14:44.093Z,101597.06
2023-02-06T11:17:10.032Z,101595.02
2023-02-06T11:19:41.683Z,101596.65
2023-02-06T11:22:10.574Z,101598.42
2023-02-06T11:24:36.806Z,101604.25
2023-02-06T11:27:18.391Z,101603.75
2023-02-06T11:29:46.855Z,101601.64
2023-02-06T11:32:35.401Z,101606.44
2023-02-06T11:35:09.784Z,101604.28
2023-02-06T11:37:37.768Z,101605.33
2023-02-06T11:40:19.137Z,101607.66
2023-02-06T11:42:46.303Z,101605.04
2023-02-06T11:45:30.850Z,101611.34
2023-02-06T11:47:57.133Z,101612.91
2023-02-06T11:50:27.602Z,101610.20
2023-02-06T11:53:10.683Z,101608.85
2023-02-06T11:55:37.751Z,101611.85
2023-02-06T11:58:17.240Z,101605.45
2023-02-06T12:00:52.289Z,101604.09
2023-02-06T12:03:26.670Z,101600.11
2023-02-06T12:05:52.730Z,101601.85
2023-02-06T12:08:19.099Z,101599.04
2023-02-06T12:10:57.101Z,101598.04
2023-02-06T12:13:25.832Z,101593.48
2023-02-06T12:15:53.774Z,101596.38
2023-02-06T12:18:34.591Z,101586.73
2023-02-06T12:21:11.190Z,101587.14
2023-02-06T12:23:45.377Z,101591.92
2023-02-06T12:26:14.719Z,101592.14
2023-02-06T12:28:51.007Z,101592.37
2023-02-06T12:31:41.131Z,101591.31
2023-02-06T12:34:15.424Z,101589.56
2023-02-06T12:37:14.472Z,101594.31
2023-02-06T12:39:41.968Z,101600.16
2023-02-06T12:42:41.534Z,101603.11
2023-02-06T12:45:44.237Z,101604.80
2023-02-06T12:48:18.372Z,101608.48
2023-02-06T12:51:07.062Z,101607.77
2023-02-06T12:53:40.215Z,101610.23
2023-02-06T12:56:25.058Z,101608.88
2023-02-06T12:59:13.910Z,101610.20
2023-02-06T13:02:00.793Z,101616.30
2023-02-06T13:04:29.042Z,101620.31
2023-02-06T13:07:05.912Z,101620.55
2023-02-06T13:09:36.829Z,101624.17
2023-02-06T13:12:07.732Z,101621.29
2023-02-06T13:14:33.631Z,101620.87
2023-02-06T13:17:07.233Z,101617.17
2023-02-06T13:19:36.121Z,101611.77
2023-02-06T13:22:12.404Z,101616.50
2023-02-06T13:24:39.642Z,101617.25
2023-02-06T13:27:08.584Z,101613.51
2023-02-06T13:29:37.024Z,101614.09
2023-02-06T13:32:15.176Z,101610.20
2023-02-06T13:34:44.207Z,101613.70
2023-02-06T13:37:33.311Z,101612.47
2023-02-06T13:40:12.116Z,101611.38
2023-02-06T13:42:56.169Z,101614.30
2023-02-06T13:45:31.625Z,101617.04
2023-02-06T13:48:35.769Z,101609.39
2023-02-06T13:51:16.813Z,101605.94
2023-02-06T13:54:02.472Z,101603.83
2023-02-06T13:57:02.522Z,101600.31
2023-02-06T13:59:32.069Z,101600.63
2023-02-06T14:02:11.934Z,101602.30
2023-02-06T14:04:37.897Z,101607.09
2023-02-06T14:07:24.476Z,101611.17
2023-02-06T14:09:59.430Z,101606.79
2023-02-06T14:12:44.130Z,101604.70
2023-02-06T14:15:36.188Z,101604.45
2023-02-06T14:18:06.596Z,101609.10
2023-02-06T14:20:49.233Z,101616.45
2023-02-06T14:23:52.617Z,101621.17
2023-02-06T14:26:29.223Z,101616.77
2023-02-06T14:29:08.660Z,101620.15
2023-02-06T14:31:53.094Z,101622.60
2023-02-06T14:34:43.710Z,101628.42
2023-02-06T14:37:23.453Z,101633.66
2023-02-06T14:39:54.072Z,101635.76
2023-02-06T14:42:24.135Z,101629.97
2023-02-06T14:44:56.577Z,101627.33
2023-02-06T14:47:25.460Z,101630.24
2023-02-06T14:49:51.357Z,101630.10
2023-02-06T14:52:20.693Z,101629.48
2023-02-06T14:54:46.668Z,101632.05
2023-02-06T14:57:21.543Z,101634.18
2023-02-06T15:00:02.413Z,101634.46
2023-02-06T15:02:31.125Z,101632.13
2023-02-06T15:04:57.595Z,101630.19
2023-02-06T15:07:29.454Z,101629.60
2023-02-06T15:10:07.844Z,101628.45
2023-02-06T15:12:33.999Z,101630.38
2023-02-06T15:15:24.451Z,101638.59
2023-02-06T15:18:07.962Z,101641.81
2023-02-06T15:20:40.806Z,101648.99
2023-02-06T15:23:18.110Z,101655.02
2023-02-06T15:26:05.048Z,101658.58
2023-02-06T15:28:32.527Z,101660.48
2023-02-06T15:30:59.437Z,101658.98
2023-02-06T15:33:27.821Z,101661.61
2023-02-06T15:35:54.940Z,101661.70
2023-02-06T15:38:21.649Z,101661.02
2023-02-06T15:40:59.571Z,101656.57
2023-02-06T15:43:25.852Z,101652.51
2023-02-06T15:45:56.553Z,101657.45
2023-02-06T15:48:31.534Z,101657.88
2023-02-06T15:51:22.195Z,101665.69
2023-02-06T15:53:50.010Z,101665.91
2023-02-06T15:56:21.809Z,101665.24
2023-02-06T15:58:48.504Z,101674.23
2023-02-06T16:01:16.976Z,101681.98
2023-02-06T16:03:43.053Z,101690.99
2023-02-06T16:06:15.760Z,101687.65
2023-02-06T16:08:42.145Z,101687.10
2023-02-06T16:11:29.106Z,101685.81
2023-02-06T16:13:55.078Z,101690.44
2023-02-06T16:16:22.763Z,101692.16
2023-02-06T16:18:51.405Z,101692.77
2023-02-06T16:21:17.342Z,101689.98
2023-02-06T16:23:49.493Z,101693.48
2023-02-06T16:26:19.875Z,101700.96
2023-02-06T16:29:04.710Z,101709.30
2023-02-06T16:31:31.670Z,101715.63
2023-02-06T16:34:02.481Z,101717.29
2023-02-06T16:36:29.578Z,101721.77
2023-02-06T16:39:03.601Z,101725.58
2023-02-06T16:41:32.924Z,101721.29
2023-02-06T16:43:59.207Z,101723.64
2023-02-06T16:46:25.296Z,101726.30
2023-02-06T16:48:52.105Z,101727.30
2023-02-06T16:51:20.158Z,101730.88
2023-02-06T16:53:47.662Z,101728.16
2023-02-06T16:56:14.159Z,101728.04
2023-02-06T16:58:40.272Z,101731.41
2023-02-06T17:01:11.131Z,101732.59
2023-02-06T17:03:38.190Z,101734.06
2023-02-06T17:06:04.282Z,101731.80
2023-02-06T17:08:30.270Z,101732.19
2023-02-06T17:10:56.184Z,101733.48
2023-02-06T17:13:23.083Z,101738.09
2023-02-06T17:15:51.545Z,101742.02
2023-02-06T17:18:17.784Z,101741.40
2023-02-06T17:20:45.705Z,101742.94
2023-02-06T17:23:11.642Z,101735.64
2023-02-06T17:25:38.649Z,101731.40
2023-02-06T17:28:06.851Z,101734.57
2023-02-06T17:30:33.479Z,101738.46
2023-02-06T17:32:59.524Z,101737.70
2023-02-06T17:35:25.551Z,101740.98
2023-02-06T17:37:51.657Z,101748.95
2023-02-06T17:40:20.425Z,101763.17
2023-02-06T17:42:46.969Z,101769.86
2023-02-06T17:45:12.969Z,101771.20
2023-02-06T17:47:38.978Z,101769.01
2023-02-06T17:50:05.378Z,101763.49
2023-02-06T17:52:31.315Z,101764.23
2023-02-06T17:54:57.424Z,101766.27
2023-02-06T17:57:23.439Z,101763.53
2023-02-06T17:59:52.088Z,101762.39
2023-02-06T18:02:18.020Z,101764.70
2023-02-06T18:04:44.055Z,101767.33
2023-02-06T18:07:10.060Z,101767.53
2023-02-06T18:09:36.051Z,101767.30
2023-02-06T18:12:02.066Z,101764.41
2023-02-06T18:14:27.994Z,101772.30
2023-02-06T18:16:53.931Z,101770.42
2023-02-06T18:19:24.119Z,101768.93
2023-02-06T18:21:50.310Z,101767.08
2023-02-06T18:24:16.426Z,101758.05
2023-02-06T18:26:42.523Z,101755.21
2023-02-06T18:29:08.452Z,101752.96
2023-02-06T18:31:35.258Z,101749.04
2023-02-06T18:34:02.680Z,101750.52
2023-02-06T18:36:29.241Z,101750.36
2023-02-06T18:38:55.849Z,101743.19
2023-02-06T18:44:41.237Z,101744.55
2023-02-06T18:47:10.025Z,101743.11
2023-02-06T18:49:37.972Z,101742.50
2023-02-06T18:52:04.720Z,101749.87
2023-02-06T18:54:31.554Z,101754.28
2023-02-06T18:57:01.071Z,101749.42
2023-02-06T18:59:27.211Z,101747.81
2023-02-06T19:02:19.325Z,101743.38
2023-02-06T19:04:45.540Z,101747.19
2023-02-06T19:07:11.689Z,101745.77
2023-02-06T19:09:38.134Z,101741.07
2023-02-06T19:12:04.630Z,101741.60
2023-02-06T19:14:31.184Z,101747.86
2023-02-06T19:16:57.880Z,101746.55
2023-02-06T19:19:27.179Z,101739.09
2023-02-06T19:21:53.202Z,101741.90
2023-02-06T19:24:19.140Z,101747.13
2023-02-06T19:26:45.220Z,101748.63
2023-02-06T19:29:17.604Z,101745.10
2023-02-06T19:31:45.628Z,101745.15
2023-02-06T19:34:11.742Z,101753.02
2023-02-06T19:36:37.890Z,101761.25
2023-02-06T19:39:06.085Z,101762.85
2023-02-06T19:41:32.665Z,101767.91
2023-02-06T19:44:02.617Z,101773.27
2023-02-06T19:46:28.936Z,101777.42
2023-02-06T19:48:55.217Z,101776.36
2023-02-06T19:51:24.465Z,101770.67
2023-02-06T19:53:50.864Z,101773.02
2023-02-06T19:56:22.651Z,101775.10
2023-02-06T19:58:53.378Z,101774.88
2023-02-06T20:01:19.342Z,101778.67
2023-02-06T20:06:27.310Z,101782.71
2023-02-06T20:08:53.898Z,101782.66
2023-02-06T20:11:21.000Z,101786.86
2023-02-06T20:13:51.642Z,101781.45
2023-02-06T20:16:19.803Z,101780.52
2023-02-06T20:18:45.912Z,101791.02
2023-02-06T20:21:19.582Z,101787.04
2023-02-06T20:23:45.685Z,101796.27
2023-02-06T20:26:11.960Z,101800.64
2023-02-06T20:28:37.875Z,101799.23
2023-02-06T20:31:08.993Z,101808.70
2023-02-06T20:33:37.901Z,101803.56
2023-02-06T20:36:06.004Z,101804.81
2023-02-06T20:38:31.949Z,101794.91
2023-02-06T20:40:57.868Z,101804.27
2023-02-06T20:43:23.763Z,101804.06
2023-02-06T20:45:49.746Z,101805.10
2023-02-06T20:48:15.659Z,101814.97
2023-02-06T20:50:42.175Z,101812.67
2023-02-06T20:53:08.129Z,101813.88
2023-02-06T20:55:34.046Z,101811.30
2023-02-06T20:57:59.979Z,101815.53
2023-02-06T21:00:25.875Z,101828.15
2023-02-06T21:02:53.177Z,101834.59
2023-02-06T21:05:19.613Z,101833.00
2023-02-06T21:07:45.538Z,101831.25
2023-02-06T21:10:11.449Z,101828.23
2023-02-06T21:12:37.387Z,101829.64
2023-02-06T21:15:03.645Z,101829.33
2023-02-06T21:17:29.593Z,101836.45
2023-02-06T21:19:55.500Z,101840.11
2023-02-06T21:22:21.451Z,101831.28
2023-02-06T21:24:47.377Z,101825.79
2023-02-06T21:27:13.325Z,101832.02
2023-02-06T21:29:39.364Z,101840.40
2023-02-06T21:32:13.752Z,101845.17
2023-02-06T21:34:40.712Z,101846.52
2023-02-06T21:37:06.640Z,101848.08
2023-02-06T21:39:32.609Z,101836.11
2023-02-06T21:41:59.819Z,101832.05
2023-02-06T21:44:25.943Z,101832.39
2023-02-06T21:46:52.022Z,101832.58
2023-02-06T21:49:18.476Z,101829.80
2023-02-06T21:51:44.841Z,101832.48
2023-02-06T21:54:10.886Z,101830.77
2023-02-06T21:56:39.954Z,101828.30
2023-02-06T21:59:06.333Z,101832.95
2023-02-06T22:01:32.933Z,101838.13
2023-02-06T22:03:59.256Z,101832.11
2023-02-06T22:06:25.907Z,101833.14
2023-02-06T22:08:53.555Z,101831.98
2023-02-06T22:11:27.064Z,101831.23
2023-02-06T22:13:56.775Z,101833.35
2023-02-06T22:16:23.024Z,101832.48
2023-02-06T22:18:49.113Z,101820.11
2023-02-06T22:21:16.642Z,101810.26
2023-02-06T22:23:43.017Z,101807.66
2023-02-06T22:26:09.860Z,101807.91
2023-02-06T22:28:36.115Z,101808.20
2023-02-06T22:31:10.145Z,101805.25
2023-02-06T22:33:36.159Z,101808.14
2023-02-06T22:36:13.817Z,101812.50
2023-02-06T22:38:40.568Z,101810.16
2023-02-06T22:41:08.308Z,101812.59
2023-02-06T22:43:35.765Z,101819.95
2023-02-06T22:46:02.083Z,101820.48
2023-02-06T22:48:28.077Z,101823.86
2023-02-06T22:50:54.137Z,101828.98
2023-02-06T22:53:29.572Z,101833.67
2023-02-06T22:56:18.803Z,101835.50
2023-02-06T22:58:44.914Z,101832.64
2023-02-06T23:01:10.952Z,101840.63
2023-02-06T23:03:37.011Z,101838.28
2023-02-06T23:06:04.059Z,101840.89
2023-02-06T23:08:30.052Z,101835.03
2023-02-06T23:10:56.104Z,101828.11
2023-02-06T23:13:22.127Z,101833.83
2023-02-06T23:15:48.546Z,101835.25
2023-02-06T23:18:14.603Z,101835.49
2023-02-06T23:20:40.530Z,101838.82
2023-02-06T23:23:06.430Z,101838.39
2023-02-06T23:25:32.378Z,101836.54
2023-02-06T23:27:58.282Z,101839.80
2023-02-06T23:30:24.400Z,101844.00
2023-02-06T23:32:50.389Z,101842.98
2023-02-06T23:35:16.990Z,101842.95
2023-02-06T23:37:42.901Z,101842.55
2023-02-06T23:40:09.297Z,101842.95
2023-02-06T23:42:35.209Z,101840.91
2023-02-06T23:45:01.152Z,101847.25
2023-02-06T23:47:27.059Z,101846.94
2023-02-06T23:49:52.954Z,101849.86
2023-02-06T23:52:18.910Z,101854.63
2023-02-06T23:54:44.815Z,101848.05
2023-02-06T23:57:10.732Z,101841.96
2023-02-06T23:59:36.663Z,101845.61
